Time;durP1;ratioP1;P1;durP2;ratioP2;P2;SDS_P1;SDS_P2;PMS_P1;PMS_P2;Temp;Humidity;BMP_temperature;BMP_pressure;BME280_temperature;BME280_humidity;BME280_pressure;Samples;Min_cycle;Max_cycle;Signal;HPM_P1;HPM_P2
2023/04/22 00:02:18;;;;;;;4.22;3.10;;;12.10;99.90;;;11.17;100.00;96696.97;5008757;28;20767;-75
2023/04/22 00:04:46;;;;;;;6.22;3.13;;;12.10;99.90;;;11.13;100.00;96689.81;5010529;28;20405;-74
2023/04/22 00:07:12;;;;;;;3.50;3.20;;;12.00;99.90;;;11.12;100.00;96691.69;5010739;28;20533;-74
2023/04/22 00:09:38;;;;;;;8.00;3.45;;;12.00;99.90;;;11.11;100.00;96687.47;5010546;28;20420;-74
2023/04/22 00:12:04;;;;;;;5.75;3.40;;;12.00;99.90;;;11.14;100.00;96683.47;5010606;28;20420;-74
2023/04/22 00:14:30;;;;;;;4.25;3.25;;;12.00;99.90;;;11.13;100.00;96687.97;5010501;28;20448;-74
2023/04/22 00:16:56;;;;;;;5.28;3.42;;;12.00;99.90;;;11.14;100.00;96688.75;5010581;28;20440;-74
2023/04/22 00:19:23;;;;;;;4.30;3.40;;;12.10;99.90;;;11.16;100.00;96687.44;5010392;28;20886;-74
2023/04/22 00:21:50;;;;;;;4.72;3.38;;;12.00;99.90;;;11.14;100.00;96686.13;5010419;28;20405;-74
2023/04/22 00:24:16;;;;;;;3.55;3.10;;;12.00;99.90;;;11.11;100.00;96679.53;5010467;28;20901;-74
2023/04/22 00:26:42;;;;;;;5.00;3.30;;;12.00;99.90;;;11.06;100.00;96687.47;5010487;28;20492;-74
2023/04/22 00:29:07;;;;;;;4.53;3.50;;;11.90;99.90;;;11.02;100.00;96683.78;5010306;28;20492;-74
2023/04/22 00:31:33;;;;;;;4.45;3.42;;;11.90;99.90;;;11.01;100.00;96676.91;5010371;28;20404;-74
2023/04/22 00:33:59;;;;;;;5.75;3.63;;;11.90;99.90;;;11.02;100.00;96688.28;5010399;28;20917;-74
2023/04/22 00:36:26;;;;;;;5.18;4.32;;;11.90;99.90;;;11.03;100.00;96684.59;5010599;28;20462;-74
2023/04/22 00:38:53;;;;;;;6.95;3.90;;;11.90;99.90;;;11.05;100.00;96685.13;5025544;22;20768;-72
2023/04/22 00:41:19;;;;;;;4.22;3.83;;;11.90;99.90;;;11.07;100.00;96682.97;5010173;28;20413;-72
2023/04/22 00:43:45;;;;;;;6.50;4.63;;;12.00;99.90;;;11.09;100.00;96678.19;5010264;28;20424;-72
2023/04/22 00:46:12;;;;;;;4.38;3.90;;;12.00;99.90;;;11.10;100.00;96674.50;5010409;28;20455;-73
2023/04/22 00:48:39;;;;;;;4.80;4.13;;;12.00;99.90;;;11.12;100.00;96685.63;5010283;28;20513;-73
2023/04/22 00:51:05;;;;;;;6.53;3.95;;;12.00;99.90;;;11.14;100.00;96681.59;5010113;28;20436;-73
2023/04/22 00:53:31;;;;;;;5.78;4.60;;;12.00;99.90;;;11.14;100.00;96689.56;5010475;28;20852;-73
2023/04/22 00:55:59;;;;;;;5.85;4.05;;;12.00;99.90;;;11.13;100.00;96690.63;5010365;28;20476;-73
2023/04/22 00:58:28;;;;;;;5.95;4.05;;;12.00;99.90;;;11.11;100.00;96689.31;5010368;28;20419;-73
2023/04/22 01:00:54;;;;;;;6.67;4.33;;;12.00;99.90;;;11.11;100.00;96684.03;5010034;28;20432;-73
2023/04/22 01:03:21;;;;;;;8.77;4.88;;;12.00;99.90;;;11.09;100.00;96683.50;5010262;28;20407;-73
2023/04/22 01:05:48;;;;;;;7.53;4.43;;;12.00;99.90;;;11.07;100.00;96685.63;5010149;28;20528;-73
2023/04/22 01:08:14;;;;;;;6.75;3.65;;;12.00;99.90;;;11.02;100.00;96675.84;5010130;28;20483;-73
2023/04/22 01:10:40;;;;;;;6.38;4.13;;;11.90;99.90;;;11.01;100.00;96681.41;5009911;28;20994;-73
2023/04/22 01:13:08;;;;;;;5.40;4.05;;;11.90;99.90;;;10.99;100.00;96679.00;5010456;28;20459;-73
2023/04/22 01:15:34;;;;;;;6.80;5.13;;;11.90;99.90;;;10.98;100.00;96685.38;5013620;28;20424;-73
2023/04/22 01:18:01;;;;;;;6.72;5.22;;;11.90;99.90;;;11.00;100.00;96679.81;5012264;28;20451;-73
2023/04/22 01:20:28;;;;;;;5.85;4.53;;;11.90;99.90;;;11.00;100.00;96685.09;5013262;28;20833;-73
2023/04/22 01:22:58;;;;;;;9.55;5.60;;;11.90;99.90;;;10.99;100.00;96686.16;5013567;28;20488;-73
2023/04/22 01:25:26;;;;;;;8.15;5.40;;;11.90;99.90;;;10.97;100.00;96683.81;5013378;28;20867;-73
2023/04/22 01:27:53;;;;;;;8.55;5.00;;;11.90;99.90;;;10.91;100.00;96676.94;5013316;28;20791;-73
2023/04/22 01:30:19;;;;;;;6.43;5.03;;;11.80;99.90;;;10.88;100.00;96679.34;5013138;28;20918;-73
2023/04/22 01:32:45;;;;;;;6.40;4.60;;;11.80;99.90;;;10.82;100.00;96671.41;5013350;28;20401;-73
2023/04/22 01:35:11;;;;;;;8.25;5.45;;;11.70;99.90;;;10.81;100.00;96671.69;5013128;28;20499;-73
2023/04/22 01:37:37;;;;;;;7.25;5.60;;;11.70;99.90;;;10.79;100.00;96674.59;5013083;28;20412;-73
2023/04/22 01:40:05;;;;;;;8.38;5.18;;;11.70;99.90;;;10.78;100.00;96672.22;5013058;28;20416;-73
2023/04/22 01:42:32;;;;;;;9.03;5.03;;;11.70;99.90;;;10.78;100.00;96674.84;5013047;28;20408;-73
2023/04/22 01:44:58;;;;;;;6.82;4.75;;;11.60;99.90;;;10.76;100.00;96680.41;5012966;28;20932;-73
2023/04/22 01:47:26;;;;;;;6.20;4.45;;;11.70;99.90;;;10.74;100.00;96679.91;5013184;28;20405;-73
2023/04/22 01:49:52;;;;;;;7.07;4.82;;;11.60;99.90;;;10.73;100.00;96688.91;5012663;28;20981;-73
2023/04/22 01:52:18;;;;;;;5.47;4.20;;;11.60;99.90;;;10.71;100.00;96679.63;5012786;28;20405;-73
2023/04/22 01:54:44;;;;;;;6.00;4.53;;;11.60;99.90;;;10.69;100.00;96679.91;5012859;28;20470;-73
2023/04/22 01:57:12;;;;;;;5.60;4.70;;;11.60;99.90;;;10.68;100.00;96678.31;5012722;28;20408;-73
2023/04/22 01:59:40;;;;;;;5.63;4.15;;;11.60;99.90;;;10.68;100.00;96682.81;5012722;28;20567;-73
2023/04/22 02:02:06;;;;;;;7.13;4.50;;;11.60;99.90;;;10.67;100.00;96687.34;5012850;28;20999;-73
2023/04/22 02:04:32;;;;;;;6.13;4.40;;;11.60;99.90;;;10.67;100.00;96684.69;5012485;28;20500;-73
2023/04/22 02:06:58;;;;;;;7.60;4.55;;;11.60;99.90;;;10.66;100.00;96688.41;5012521;28;20405;-73
2023/04/22 02:09:24;;;;;;;5.67;5.03;;;11.50;99.90;;;10.69;100.00;96684.41;5012425;28;20420;-73
2023/04/22 02:11:50;;;;;;;5.85;4.63;;;11.60;99.90;;;10.67;100.00;96687.34;5012374;28;20770;-73
2023/04/22 02:14:16;;;;;;;7.68;4.80;;;11.60;99.90;;;10.69;100.00;96690.50;5012253;28;20425;-73
2023/04/22 02:16:43;;;;;;;7.63;4.30;;;11.60;99.90;;;10.70;100.00;96696.56;5012507;28;20401;-73
2023/04/22 02:19:09;;;;;;;8.90;4.53;;;11.60;99.90;;;10.68;100.00;96693.41;5012439;28;20653;-73
2023/04/22 02:21:35;;;;;;;5.90;4.60;;;11.50;99.90;;;10.69;100.00;96697.63;5012274;28;20408;-73
2023/04/22 02:24:01;;;;;;;5.40;4.10;;;11.60;99.90;;;10.69;100.00;96701.06;5012177;28;20409;-73
2023/04/22 02:26:27;;;;;;;6.72;4.82;;;11.60;99.90;;;10.69;100.00;96698.44;5011647;28;20462;-73
2023/04/22 02:28:53;;;;;;;8.20;5.57;;;11.60;99.90;;;10.68;100.00;96702.13;5024479;28;20472;-73
2023/04/22 02:31:19;;;;;;;7.00;4.60;;;11.60;99.90;;;10.66;100.00;96706.13;5031905;28;20431;-73
2023/04/22 02:33:46;;;;;;;6.63;4.75;;;11.60;99.90;;;10.63;100.00;96710.09;5031795;28;20473;-73
2023/04/22 02:36:12;;;;;;;6.38;4.93;;;11.60;99.90;;;10.60;100.00;96702.69;5031963;28;20406;-73
2023/04/22 02:38:38;;;;;;;6.22;4.75;;;11.50;99.90;;;10.59;100.00;96713.56;5031797;28;20439;-73
2023/04/22 02:41:05;;;;;;;6.93;5.07;;;11.50;99.90;;;10.55;100.00;96712.47;5030887;28;21260;-73
2023/04/22 02:43:31;;;;;;;6.33;5.07;;;11.50;99.90;;;10.48;100.00;96710.13;5031690;28;20432;-73
2023/04/22 02:45:57;;;;;;;6.43;4.70;;;11.40;99.90;;;10.45;100.00;96697.41;5031599;28;20408;-72
2023/04/22 02:48:23;;;;;;;7.90;4.63;;;11.40;99.90;;;10.38;100.00;96700.31;5031707;28;20916;-72
2023/04/22 02:50:50;;;;;;;6.07;4.40;;;11.20;99.90;;;10.30;100.00;96697.44;5031299;28;20469;-73
2023/04/22 02:53:16;;;;;;;6.30;4.85;;;11.20;99.90;;;10.24;100.00;96707.22;5031564;28;20411;-73
2023/04/22 02:55:42;;;;;;;5.93;4.53;;;11.20;99.90;;;10.24;100.00;96711.72;5031376;28;20398;-73
2023/04/22 02:58:08;;;;;;;7.97;5.10;;;11.10;99.90;;;10.23;100.00;96715.41;5031434;28;20399;-73
2023/04/22 03:00:34;;;;;;;6.50;4.78;;;11.20;99.90;;;10.21;100.00;96710.41;5031325;28;20914;-73
2023/04/22 03:03:00;;;;;;;5.57;5.00;;;11.10;99.90;;;10.16;100.00;96699.78;5031502;28;20768;-73
2023/04/22 03:05:26;;;;;;;6.18;4.70;;;11.10;99.90;;;10.13;100.00;96700.31;5031162;28;20403;-73
2023/04/22 03:07:54;;;;;;;7.35;4.97;;;11.10;99.90;;;10.09;100.00;96694.75;5031311;28;20407;-73
2023/04/22 03:10:20;;;;;;;7.03;5.20;;;11.00;99.90;;;10.05;100.00;96704.28;5030859;28;20421;-73
2023/04/22 03:12:47;;;;;;;6.72;5.00;;;11.00;99.90;;;10.02;100.00;96698.72;5031194;28;20407;-73
2023/04/22 03:15:13;;;;;;;6.50;5.38;;;11.00;99.90;;;9.98;100.00;96700.31;5031095;28;20403;-73
2023/04/22 03:17:38;;;;;;;6.57;5.05;;;10.90;99.90;;;9.95;100.00;96698.97;5031098;28;20947;-73
2023/04/22 03:20:06;;;;;;;7.10;4.93;;;10.90;99.90;;;9.93;100.00;96697.66;5030946;28;20431;-74
2023/04/22 03:22:32;;;;;;;8.02;4.80;;;10.80;99.90;;;9.89;100.00;96696.59;5031138;28;20488;-73
2023/04/22 03:24:59;;;;;;;8.23;5.50;;;10.80;99.90;;;9.85;100.00;96693.69;5030805;28;20891;-73
2023/04/22 03:27:25;;;;;;;6.93;5.40;;;10.80;99.90;;;9.84;100.00;96705.34;5031099;28;20407;-73
2023/04/22 03:29:51;;;;;;;7.90;5.40;;;10.80;99.90;;;9.81;100.00;96703.19;5030743;28;20514;-73
2023/04/22 03:32:17;;;;;;;10.10;5.13;;;10.80;99.90;;;9.81;100.00;96697.91;5030960;28;20403;-73
2023/04/22 03:34:43;;;;;;;6.55;5.47;;;10.80;99.90;;;9.82;100.00;96690.78;5031097;28;20411;-73
2023/04/22 03:37:09;;;;;;;6.47;4.95;;;10.80;99.90;;;9.83;100.00;96700.31;5029929;28;20403;-73
2023/04/22 03:39:35;;;;;;;7.45;5.43;;;10.80;99.90;;;9.82;100.00;96720.66;5030539;28;20402;-73
2023/04/22 03:42:02;;;;;;;7.47;5.90;;;10.80;99.90;;;9.83;100.00;96718.81;5030781;28;20437;-73
2023/04/22 03:44:28;;;;;;;9.32;5.97;;;10.80;99.90;;;9.81;100.00;96713.78;5030729;28;20403;-73
2023/04/22 03:46:54;;;;;;;10.70;6.25;;;10.80;99.90;;;9.81;100.00;96705.84;5030723;28;21001;-73
2023/04/22 03:49:20;;;;;;;6.57;5.60;;;10.80;99.90;;;9.80;100.00;96711.38;5030601;28;20444;-73
2023/04/22 03:51:46;;;;;;;6.97;5.50;;;10.70;99.90;;;9.80;100.00;96714.03;5030569;28;20453;-73
2023/04/22 03:54:12;;;;;;;6.45;5.40;;;10.70;99.90;;;9.82;100.00;96711.94;5045563;28;20492;-73
2023/04/22 03:56:37;;;;;;;6.30;5.22;;;10.80;99.90;;;9.81;100.00;96720.91;5030623;28;20410;-73
2023/04/22 03:59:05;;;;;;;7.93;6.10;;;10.70;99.90;;;9.79;100.00;96715.88;5030609;28;20437;-73
2023/04/22 04:01:31;;;;;;;6.85;5.57;;;10.80;99.90;;;9.78;100.00;96724.06;5030323;28;20406;-73
2023/04/22 04:03:56;;;;;;;6.70;5.75;;;10.70;99.90;;;9.74;100.00;96723.00;5030334;28;20765;-73
2023/04/22 04:06:22;;;;;;;8.57;5.55;;;10.70;99.90;;;9.72;100.00;96717.97;5030425;28;20434;-73
2023/04/22 04:08:48;;;;;;;8.00;6.00;;;10.70;99.90;;;9.68;100.00;96715.09;5030298;28;20406;-73
2023/04/22 04:11:14;;;;;;;9.03;6.17;;;10.70;99.90;;;9.67;100.00;96715.34;5030257;28;20958;-73
2023/04/22 04:13:40;;;;;;;7.95;5.97;;;10.60;99.90;;;9.65;100.00;96706.88;5030249;28;20403;-73
2023/04/22 04:16:08;;;;;;;10.90;5.72;;;10.60;99.90;;;9.60;100.00;96712.16;5030580;28;20522;-72
2023/04/22 04:18:33;;;;;;;8.50;6.03;;;10.60;99.90;;;9.58;100.00;96706.31;5030278;28;20769;-73
2023/04/22 04:20:59;;;;;;;8.70;5.88;;;10.50;99.90;;;9.57;100.00;96707.38;5030181;28;20395;-73
2023/04/22 04:23:26;;;;;;;8.77;6.13;;;10.50;99.90;;;9.57;100.00;96712.66;5030369;28;20917;-73
2023/04/22 04:25:52;;;;;;;8.73;6.45;;;10.50;99.90;;;9.56;100.00;96714.50;5030139;28;20473;-73
2023/04/22 04:28:18;;;;;;;8.00;5.97;;;10.50;99.90;;;9.53;100.00;96709.75;5030249;28;20450;-73
2023/04/22 04:30:44;;;;;;;7.30;5.85;;;10.50;99.90;;;9.51;100.00;96711.88;5030030;28;20422;-73
2023/04/22 04:33:11;;;;;;;9.50;7.03;;;10.50;99.90;;;9.53;100.00;96722.97;5030235;28;20881;-73
2023/04/22 04:35:37;;;;;;;8.65;6.30;;;10.50;99.90;;;9.53;100.00;96712.41;5030076;28;20494;-73
2023/04/22 04:38:04;;;;;;;9.40;6.80;;;10.50;99.90;;;9.52;100.00;96710.00;5030060;28;20407;-73
2023/04/22 04:40:31;;;;;;;9.35;6.38;;;10.50;99.90;;;9.50;100.00;96701.56;5030125;28;20757;-73
2023/04/22 04:42:57;;;;;;;8.55;6.32;;;10.50;99.90;;;9.49;100.00;96692.81;5030281;28;20395;-73
2023/04/22 04:45:23;;;;;;;9.85;6.82;;;10.50;99.90;;;9.51;100.00;96690.72;5030034;28;20758;-73
2023/04/22 04:47:53;;;;;;;7.95;6.43;;;10.40;99.90;;;9.55;100.00;96694.41;5030161;28;20435;-73
2023/04/22 04:50:21;;;;;;;9.25;6.65;;;10.50;99.90;;;9.59;100.00;96692.06;5033678;28;20485;-73
2023/04/22 04:52:47;;;;;;;7.90;6.18;;;10.50;99.90;;;9.62;100.00;96702.13;5019321;28;20407;-73
2023/04/22 04:55:14;;;;;;;9.10;6.80;;;10.60;99.90;;;9.65;100.00;96698.94;5023495;28;20419;-74
2023/04/22 04:57:40;;;;;;;8.77;6.35;;;10.60;99.90;;;9.68;100.00;96693.16;5009115;28;20883;-74
2023/04/22 05:00:07;;;;;;;8.43;6.25;;;10.60;99.90;;;9.70;100.00;96696.31;5009525;28;20769;-74
2023/04/22 05:02:33;;;;;;;8.68;6.95;;;10.70;99.90;;;9.72;100.00;96694.19;5007333;28;20396;-74
2023/04/22 05:04:59;;;;;;;8.82;6.45;;;10.70;99.90;;;9.73;100.00;96684.41;5005923;28;20424;-74
2023/04/22 05:07:26;;;;;;;8.25;6.25;;;10.70;99.90;;;9.76;100.00;96690.00;5000390;28;20413;-73
2023/04/22 05:09:53;;;;;;;11.80;7.38;;;10.70;99.90;;;9.77;100.00;96690.78;5000932;28;20430;-74
2023/04/22 05:12:19;;;;;;;7.63;5.85;;;10.70;99.90;;;9.75;100.00;96692.88;5007668;28;20760;-75
2023/04/22 05:14:45;;;;;;;8.13;5.60;;;10.70;99.90;;;9.73;100.00;96692.34;5007672;28;20525;-75
2023/04/22 05:17:12;;;;;;;6.88;5.15;;;10.70;99.90;;;9.72;100.00;96688.91;5010004;28;20399;-74
2023/04/22 05:19:38;;;;;;;7.38;5.85;;;10.70;99.90;;;9.74;100.00;96688.66;5004508;28;20395;-75
2023/04/22 05:22:04;;;;;;;11.88;6.72;;;10.70;99.90;;;9.75;100.00;96692.88;5005249;28;20515;-75
2023/04/22 05:24:31;;;;;;;8.55;5.45;;;10.70;99.90;;;9.72;100.00;96691.56;5004257;28;20407;-75
2023/04/22 05:26:57;;;;;;;10.43;5.68;;;10.60;99.90;;;9.68;100.00;96690.50;5004624;28;20402;-75
2023/04/22 05:29:23;;;;;;;8.07;5.30;;;10.60;99.90;;;9.65;100.00;96699.75;5007384;28;20420;-74
2023/04/22 05:31:49;;;;;;;7.90;5.85;;;10.60;99.90;;;9.65;100.00;96694.44;5011838;28;20409;-74
2023/04/22 05:34:15;;;;;;;6.27;5.07;;;10.50;99.90;;;9.69;100.00;96700.03;5006152;28;20495;-73
2023/04/22 05:36:41;;;;;;;7.18;5.38;;;10.60;99.90;;;9.69;100.00;96713.25;5014819;28;20507;-73
2023/04/22 05:39:07;;;;;;;8.77;5.72;;;10.60;99.90;;;9.73;100.00;96713.50;5014745;28;20400;-73
2023/04/22 05:41:34;;;;;;;7.27;5.50;;;10.60;99.90;;;9.79;100.00;96709.78;5016724;28;20475;-73
2023/04/22 05:44:00;;;;;;;10.57;5.57;;;10.70;99.90;;;9.83;100.00;96710.88;5014751;28;20882;-73
2023/04/22 05:46:26;;;;;;;5.90;4.90;;;10.70;99.90;;;9.92;100.00;96706.66;5014928;28;20401;-73
2023/04/22 05:48:54;;;;;;;6.53;5.10;;;10.80;99.90;;;10.00;100.00;96706.91;5014665;28;20484;-72
2023/04/22 05:51:20;;;;;;;5.63;4.65;;;10.90;99.90;;;10.10;100.00;96703.47;5015061;28;20886;-72
2023/04/22 05:53:46;;;;;;;5.55;4.57;;;11.00;99.90;;;10.21;100.00;96712.25;5016023;28;20435;-70
2023/04/22 05:56:12;;;;;;;6.30;5.00;;;11.10;99.90;;;10.29;100.00;96714.38;5014770;28;20895;-71
2023/04/22 05:58:39;;;;;;;8.13;5.70;;;11.20;99.90;;;10.36;100.00;96714.91;5014633;28;20408;-70
2023/04/22 06:01:05;;;;;;;6.20;5.18;;;11.20;99.90;;;10.43;100.00;96710.13;5012072;28;20903;-71
2023/04/22 06:03:31;;;;;;;8.65;5.50;;;11.30;99.90;;;10.50;100.00;96717.78;5015389;28;20404;-72
2023/04/22 06:05:57;;;;;;;7.57;5.10;;;11.40;99.90;;;10.57;100.00;96708.53;5014105;28;20505;-73
2023/04/22 06:08:23;;;;;;;6.75;5.47;;;11.40;99.90;;;10.68;100.00;96714.56;5011101;28;20408;-73
2023/04/22 06:10:49;;;;;;;6.13;5.13;;;11.50;99.90;;;10.79;100.00;96709.00;5015883;28;20424;-72
2023/04/22 06:13:16;;;;;;;15.27;6.82;;;11.60;99.90;;;10.83;100.00;96711.91;5011329;28;20527;-73
2023/04/22 06:15:43;;;;;;;6.93;5.25;;;11.70;99.90;;;11.02;100.00;96720.06;5012194;28;20413;-73
2023/04/22 06:18:09;;;;;;;7.35;5.38;;;11.80;99.90;;;11.17;100.00;96710.22;5006827;28;20435;-73
2023/04/22 06:20:35;;;;;;;6.25;5.43;;;12.00;99.90;;;11.30;100.00;96711.47;5005590;28;20417;-73
2023/04/22 06:23:04;;;;;;;7.43;5.40;;;12.10;99.90;;;11.45;100.00;96715.91;5007591;28;20408;-72
2023/04/22 06:25:31;;;;;;;8.43;5.53;;;12.20;99.90;;;11.53;100.00;96720.66;5015980;28;20849;-72
2023/04/22 06:27:57;;;;;;;7.40;5.47;;;12.30;99.90;;;11.67;100.00;96721.63;5014375;28;20411;-72
2023/04/22 06:30:23;;;;;;;6.90;5.20;;;12.40;99.90;;;11.79;100.00;96724.78;5014341;28;20417;-73
2023/04/22 06:32:51;;;;;;;6.95;5.22;;;12.50;99.90;;;11.91;100.00;96725.22;5014631;28;20414;-74
2023/04/22 06:35:17;;;;;;;8.05;5.85;;;12.60;99.90;;;11.95;100.00;96725.50;5014645;28;20401;-73
2023/04/22 06:37:43;;;;;;;7.18;5.40;;;12.70;99.90;;;11.98;100.00;96724.91;5027671;23;20436;-73
2023/04/22 06:40:10;;;;;;;6.55;5.18;;;12.80;99.90;;;12.14;100.00;96722.97;5010888;28;20502;-74
2023/04/22 06:42:36;;;;;;;5.05;4.15;;;12.90;99.90;;;12.06;100.00;96726.19;5002320;28;20405;-73
2023/04/22 06:45:03;;;;;;;5.72;3.97;;;12.90;99.90;;;12.08;100.00;96718.75;4993786;28;20417;-73
2023/04/22 06:47:29;;;;;;;4.80;3.78;;;12.90;99.90;;;12.32;100.00;96730.25;4994407;28;20884;-74
2023/04/22 06:49:56;;;;;;;6.78;4.00;;;13.00;99.90;;;12.33;100.00;96721.19;4994198;28;20429;-72
2023/04/22 06:52:22;;;;;;;5.55;3.90;;;13.10;99.90;;;12.47;100.00;96730.13;4993616;28;20410;-74
2023/04/22 06:54:48;;;;;;;6.60;4.30;;;13.20;99.90;;;12.39;100.00;96723.56;4995400;28;20890;-73
2023/04/22 06:57:16;;;;;;;4.72;3.47;;;13.20;99.90;;;12.56;100.00;96725.78;4994582;28;20450;-73
2023/04/22 06:59:43;;;;;;;5.22;3.72;;;13.30;99.90;;;12.62;100.00;96737.16;4999752;28;20443;-73
2023/04/22 07:02:08;;;;;;;4.47;3.72;;;13.40;99.90;;;12.76;100.00;96732.78;4992356;28;20742;-73
2023/04/22 07:04:34;;;;;;;4.30;3.50;;;13.50;99.90;;;12.89;100.00;96729.47;4991530;28;20413;-73
2023/04/22 07:07:02;;;;;;;7.53;3.73;;;13.60;99.90;;;12.76;100.00;96735.44;4991738;28;20482;-73
2023/04/22 07:09:28;;;;;;;4.15;3.65;;;13.60;99.90;;;12.88;100.00;96732.38;4991564;28;20433;-74
2023/04/22 07:11:54;;;;;;;4.65;3.53;;;13.60;99.90;;;13.10;100.00;96730.81;4991450;28;20410;-73
2023/04/22 07:14:20;;;;;;;4.20;3.45;;;13.80;99.90;;;13.06;100.00;96727.16;4990268;28;20426;-73
2023/04/22 07:16:46;;;;;;;5.68;3.67;;;13.80;99.90;;;13.15;100.00;96720.19;4991490;28;20418;-73
2023/04/22 07:19:12;;;;;;;5.22;3.35;;;13.80;99.90;;;13.29;100.00;96722.94;4991479;28;20449;-73
2023/04/22 07:21:38;;;;;;;4.28;3.38;;;14.00;99.90;;;13.31;100.00;96722.63;4991344;28;20875;-73
2023/04/22 07:24:06;;;;;;;3.90;3.20;;;14.00;99.90;;;13.27;100.00;96716.31;4991438;28;20414;-72
2023/04/22 07:26:33;;;;;;;3.73;3.40;;;13.90;99.90;;;13.39;100.00;96711.38;4991547;28;21007;-73
2023/04/22 07:28:59;;;;;;;3.65;2.85;;;14.10;99.90;;;13.51;100.00;96704.59;4990339;28;20924;-73
2023/04/22 07:31:25;;;;;;;3.97;3.50;;;14.20;99.90;;;13.68;100.00;96712.06;4991578;28;20422;-73
2023/04/22 07:33:50;;;;;;;5.55;3.30;;;14.40;99.90;;;13.80;100.00;96703.66;4991418;28;20441;-73
2023/04/22 07:36:16;;;;;;;4.03;2.97;;;14.50;99.90;;;13.92;100.00;96699.47;4991492;28;20904;-73
2023/04/22 07:38:42;;;;;;;3.97;3.22;;;14.60;99.90;;;14.05;100.00;96699.84;4991440;28;20481;-74
2023/04/22 07:41:10;;;;;;;5.07;3.47;;;14.70;99.90;;;14.07;100.00;96703.78;4991370;28;20403;-73
2023/04/22 07:43:35;;;;;;;4.80;3.40;;;14.70;99.90;;;14.23;100.00;96704.34;4991358;28;20814;-73
2023/04/22 07:46:02;;;;;;;4.15;3.50;;;14.90;99.90;;;14.25;100.00;96712.81;4991490;28;20413;-73
2023/04/22 07:48:28;;;;;;;5.32;3.80;;;14.90;99.90;;;14.42;100.00;96709.66;4990017;28;20407;-73
2023/04/22 07:50:53;;;;;;;10.85;3.90;;;15.00;99.90;;;14.38;100.00;96714.78;5008602;28;20522;-73
2023/04/22 07:53:19;;;;;;;5.40;4.07;;;15.10;99.90;;;14.41;100.00;96718.72;5009703;28;20403;-74
2023/04/22 07:55:45;;;;;;;4.53;3.55;;;15.10;99.90;;;14.38;100.00;96733.41;4996700;28;20923;-73
2023/04/22 07:58:12;;;;;;;4.97;3.83;;;15.00;99.90;;;14.65;100.00;96727.38;4995118;28;20408;-77
2023/04/22 08:00:38;;;;;;;6.03;3.95;;;15.30;99.90;;;14.38;100.00;96721.94;5003578;28;20416;-77
2023/04/22 08:03:04;;;;;;;6.78;3.40;;;15.10;99.90;;;14.55;100.00;96723.00;4993705;28;20411;-77
2023/04/22 08:05:30;;;;;;;6.82;3.85;;;15.20;99.90;;;14.57;100.00;96728.06;4994203;28;20445;-77
2023/04/22 08:07:56;;;;;;;4.95;3.40;;;15.30;99.90;;;14.65;100.00;96727.38;4996699;28;20768;-77
2023/04/22 08:10:23;;;;;;;4.07;3.08;;;15.30;99.90;;;14.64;100.00;96728.47;4991408;28;20418;-76
2023/04/22 08:12:48;;;;;;;4.20;2.53;;;15.30;99.90;;;14.69;100.00;96720.38;4989858;28;20421;-76
2023/04/22 08:15:16;;;;;;;3.97;2.80;;;15.30;99.90;;;14.81;100.00;96710.03;4991035;28;20418;-76
2023/04/22 08:17:42;;;;;;;4.43;2.85;;;15.50;99.90;;;14.65;100.00;96714.84;4990858;28;20489;-75
2023/04/22 08:20:08;;;;;;;4.28;2.60;;;15.40;99.90;;;14.59;100.00;96717.88;4990195;28;20921;-76
2023/04/22 08:22:35;;;;;;;4.32;2.25;;;15.30;99.90;;;14.53;100.00;96714.50;4990740;28;20406;-75
2023/04/22 08:25:01;;;;;;;3.03;2.35;;;15.20;99.90;;;14.58;100.00;96708.34;4993792;28;20409;-76
2023/04/22 08:27:27;;;;;;;3.55;2.60;;;15.20;99.90;;;14.56;100.00;96713.16;4993379;28;20880;-75
2023/04/22 08:29:53;;;;;;;4.88;2.90;;;15.30;99.90;;;14.76;100.00;96710.13;4993032;28;20449;-76
2023/04/22 08:32:25;;;;;;;3.37;2.77;;;15.40;99.90;;;14.85;100.00;96707.56;4994907;28;20476;-75
2023/04/22 08:34:50;;;;;;;3.17;2.50;;;15.50;99.90;;;14.86;100.00;96709.16;4993525;28;20896;-75
2023/04/22 08:37:17;;;;;;;4.00;2.20;;;15.50;99.90;;;14.80;100.00;96711.13;4994364;28;20410;-76
2023/04/22 08:39:44;;;;;;;3.78;2.30;;;15.60;99.90;;;14.97;100.00;96715.88;4992921;28;20411;-76
2023/04/22 08:42:11;;;;;;;4.45;2.15;;;15.60;99.90;;;15.13;100.00;96706.50;4992298;28;20497;-75
2023/04/22 08:44:38;;;;;;;3.92;2.47;;;15.80;99.90;;;15.15;100.00;96699.00;4993801;28;20407;-75
2023/04/22 08:47:05;;;;;;;3.38;2.40;;;15.90;99.90;;;15.21;100.00;96697.81;4994397;28;20417;-75
2023/04/22 08:49:35;;;;;;;3.28;2.35;;;15.80;99.90;;;15.09;100.00;96698.31;4993865;28;20414;-75
2023/04/22 08:52:01;;;;;;;4.07;2.60;;;15.70;99.90;;;15.18;100.00;96702.97;4993982;28;20872;-75
2023/04/22 08:54:27;;;;;;;5.60;2.40;;;15.80;99.90;;;15.27;100.00;96709.16;4994606;28;20406;-75
2023/04/22 08:56:54;;;;;;;3.72;2.03;;;15.90;99.90;;;15.30;100.00;96709.38;4994811;28;20410;-76
2023/04/22 08:59:21;;;;;;;3.42;2.35;;;15.90;99.90;;;15.46;100.00;96705.31;4994668;28;20433;-75
2023/04/22 09:01:54;;;;;;;3.40;2.30;;;16.10;99.90;;;15.61;100.00;96696.22;4993025;28;20456;-75
2023/04/22 09:04:22;;;;;;;2.53;2.10;;;16.20;99.90;;;15.74;100.00;96700.72;4994348;28;20399;-75
2023/04/22 09:06:49;;;;;;;2.53;2.20;;;16.30;99.90;;;15.81;100.00;96698.44;5009601;28;20417;-76
2023/04/22 09:09:16;;;;;;;2.60;1.92;;;16.40;99.90;;;15.86;100.00;96692.97;4994333;28;20410;-76
2023/04/22 09:11:42;;;;;;;2.40;2.03;;;16.50;99.90;;;16.12;100.00;96693.19;4992950;28;20413;-76
2023/04/22 09:14:07;;;;;;;2.93;2.00;;;16.70;99.90;;;16.37;100.00;96691.81;4994119;28;20402;-76
2023/04/22 09:16:43;;;;;;;2.80;2.10;;;16.90;99.90;;;16.68;100.00;96691.84;4994240;28;20402;-76
2023/04/22 09:19:12;;;;;;;2.50;2.10;;;17.20;99.90;;;16.94;100.00;96695.44;4994224;28;20457;-76
2023/04/22 09:21:38;;;;;;;3.47;2.15;;;17.50;99.90;;;17.08;100.00;96681.94;4994015;28;20541;-76
2023/04/22 09:24:07;;;;;;;2.75;2.05;;;17.60;99.90;;;17.26;100.00;96688.16;4993819;28;20406;-76
2023/04/22 09:26:33;;;;;;;3.55;2.28;;;17.80;99.90;;;17.37;100.00;96687.53;4992645;28;20414;-76
2023/04/22 09:28:59;;;;;;;6.53;2.58;;;17.90;99.90;;;17.41;100.00;96685.03;4994057;28;20803;-76
2023/04/22 09:31:26;;;;;;;2.90;2.15;;;18.00;99.90;;;17.52;100.00;96680.97;4993815;28;20411;-76
2023/04/22 09:33:56;;;;;;;2.90;2.10;;;18.10;99.90;;;17.68;100.00;96686.69;4993988;28;20414;-76
2023/04/22 09:36:22;;;;;;;4.07;2.25;;;18.20;99.90;;;17.60;100.00;96690.88;4993882;28;20398;-76
2023/04/22 09:38:52;;;;;;;4.90;2.58;;;18.20;99.90;;;17.44;100.00;96689.00;4993641;28;20432;-76
2023/04/22 09:41:26;;;;;;;5.50;2.20;;;18.10;99.90;;;17.46;100.00;96700.16;4993724;28;20592;-76
2023/04/22 09:43:55;;;;;;;2.42;2.03;;;18.10;91.50;;;17.56;100.00;96692.63;4993790;28;20410;-76
2023/04/22 09:46:23;;;;;;;2.70;1.98;;;18.10;99.90;;;17.54;100.00;96692.16;4993766;28;20415;-75
2023/04/22 09:48:49;;;;;;;3.30;2.00;;;18.10;99.90;;;17.49;100.00;96697.66;4993630;28;20893;-75
2023/04/22 09:51:17;;;;;;;3.10;2.00;;;18.10;96.30;;;17.56;100.00;96692.63;4993491;28;20924;-75
2023/04/22 09:53:42;;;;;;;5.70;2.40;;;18.10;99.90;;;17.52;100.00;96683.63;4993375;28;20804;-74
2023/04/22 09:56:08;;;;;;;3.33;2.20;;;18.20;94.30;;;17.77;100.00;96677.56;4993483;28;20568;-74
2023/04/22 09:58:41;;;;;;;2.25;1.80;;;18.30;99.90;;;18.03;100.00;96682.16;4993280;28;20439;-75
2023/04/22 10:01:07;;;;;;;5.00;2.15;;;18.50;99.90;;;18.25;100.00;96683.88;4991774;28;20405;-75
2023/04/22 10:03:34;;;;;;;6.18;2.05;;;18.70;99.90;;;18.07;100.00;96675.84;4993233;28;20410;-75
2023/04/22 10:06:00;;;;;;;3.38;1.77;;;18.70;89.70;;;18.31;100.00;96671.88;4992432;28;20477;-75
2023/04/22 10:08:26;;;;;;;4.00;2.17;;;18.80;98.30;;;18.46;100.00;96674.06;4993208;28;20970;-74
2023/04/22 10:10:52;;;;;;;3.53;1.77;;;19.00;98.00;;;18.72;100.00;96663.31;4993151;28;20441;-75